sensor_id;sensor_type;location;lat;lon;timestamp;P1;durP1;ratioP1;P2;durP2;ratioP2
78960;SDS011;68362;45.970;12.646;2023-10-09T00:00:25;27.17;;;15.10;;
78960;SDS011;68362;45.970;12.646;2023-10-09T00:02:02;24.65;;;15.52;;
78960;SDS011;68362;45.970;12.646;2023-10-09T00:03:08;23.83;;;15.50;;
78960;SDS011;68362;45.970;12.646;2023-10-09T00:05:13;27.08;;;16.08;;
78960;SDS011;68362;45.970;12.646;2023-10-09T00:06:25;25.70;;;15.43;;
78960;SDS011;68362;45.970;12.646;2023-10-09T00:07:34;24.08;;;14.90;;
78960;SDS011;68362;45.970;12.646;2023-10-09T00:08:37;26.20;;;14.90;;
78960;SDS011;68362;45.970;12.646;2023-10-09T00:09:40;24.33;;;13.82;;
78960;SDS011;68362;45.970;12.646;2023-10-09T00:10:52;24.42;;;15.88;;
78960;SDS011;68362;45.970;12.646;2023-10-09T00:11:55;25.55;;;15.90;;
78960;SDS011;68362;45.970;12.646;2023-10-09T00:13:02;22.70;;;14.85;;
78960;SDS011;68362;45.970;12.646;2023-10-09T00:14:04;31.20;;;15.88;;
78960;SDS011;68362;45.970;12.646;2023-10-09T00:15:07;24.27;;;14.68;;
78960;SDS011;68362;45.970;12.646;2023-10-09T00:16:17;23.88;;;14.30;;
78960;SDS011;68362;45.970;12.646;2023-10-09T00:17:37;22.58;;;14.85;;
78960;SDS011;68362;45.970;12.646;2023-10-09T00:19:48;22.90;;;14.57;;
78960;SDS011;68362;45.970;12.646;2023-10-09T00:20:51;22.50;;;14.88;;
78960;SDS011;68362;45.970;12.646;2023-10-09T00:21:57;23.35;;;14.73;;
78960;SDS011;68362;45.970;12.646;2023-10-09T00:23:00;25.27;;;14.15;;
78960;SDS011;68362;45.970;12.646;2023-10-09T00:24:02;24.58;;;15.73;;
78960;SDS011;68362;45.970;12.646;2023-10-09T00:25:08;22.70;;;14.77;;
78960;SDS011;68362;45.970;12.646;2023-10-09T00:26:14;23.95;;;14.55;;
78960;SDS011;68362;45.970;12.646;2023-10-09T00:27:19;19.73;;;13.10;;
78960;SDS011;68362;45.970;12.646;2023-10-09T00:28:22;24.27;;;16.13;;
78960;SDS011;68362;45.970;12.646;2023-10-09T00:29:25;22.58;;;15.18;;
78960;SDS011;68362;45.970;12.646;2023-10-09T00:30:40;20.38;;;13.55;;
78960;SDS011;68362;45.970;12.646;2023-10-09T00:31:43;25.70;;;14.60;;
78960;SDS011;68362;45.970;12.646;2023-10-09T00:32:51;25.27;;;14.73;;
78960;SDS011;68362;45.970;12.646;2023-10-09T00:34:00;24.25;;;15.50;;
78960;SDS011;68362;45.970;12.646;2023-10-09T00:35:09;27.45;;;16.80;;
78960;SDS011;68362;45.970;12.646;2023-10-09T00:36:30;28.95;;;15.80;;
78960;SDS011;68362;45.970;12.646;2023-10-09T00:37:34;25.30;;;15.93;;
78960;SDS011;68362;45.970;12.646;2023-10-09T00:38:36;27.95;;;15.57;;
78960;SDS011;68362;45.970;12.646;2023-10-09T00:39:53;23.60;;;15.68;;
78960;SDS011;68362;45.970;12.646;2023-10-09T00:40:58;24.90;;;14.85;;
78960;SDS011;68362;45.970;12.646;2023-10-09T00:42:12;21.48;;;13.60;;
78960;SDS011;68362;45.970;12.646;2023-10-09T00:43:16;25.58;;;14.70;;
78960;SDS011;68362;45.970;12.646;2023-10-09T00:44:21;23.13;;;14.82;;
78960;SDS011;68362;45.970;12.646;2023-10-09T00:45:23;23.15;;;14.68;;
78960;SDS011;68362;45.970;12.646;2023-10-09T00:46:34;23.25;;;13.95;;
78960;SDS011;68362;45.970;12.646;2023-10-09T00:47:36;23.00;;;14.63;;
78960;SDS011;68362;45.970;12.646;2023-10-09T00:48:43;25.25;;;15.23;;
78960;SDS011;68362;45.970;12.646;2023-10-09T00:49:47;28.70;;;14.95;;
78960;SDS011;68362;45.970;12.646;2023-10-09T00:50:49;19.65;;;13.10;;
78960;SDS011;68362;45.970;12.646;2023-10-09T00:51:54;25.80;;;14.15;;
78960;SDS011;68362;45.970;12.646;2023-10-09T00:52:58;21.60;;;12.98;;
78960;SDS011;68362;45.970;12.646;2023-10-09T00:54:13;21.05;;;12.63;;
78960;SDS011;68362;45.970;12.646;2023-10-09T00:55:17;20.10;;;13.68;;
78960;SDS011;68362;45.970;12.646;2023-10-09T00:56:29;20.35;;;13.88;;
78960;SDS011;68362;45.970;12.646;2023-10-09T00:57:44;21.50;;;13.05;;
78960;SDS011;68362;45.970;12.646;2023-10-09T00:58:58;21.98;;;13.82;;
78960;SDS011;68362;45.970;12.646;2023-10-09T01:00:15;21.75;;;13.02;;
78960;SDS011;68362;45.970;12.646;2023-10-09T01:01:35;22.55;;;14.65;;
78960;SDS011;68362;45.970;12.646;2023-10-09T01:02:41;26.52;;;15.23;;
78960;SDS011;68362;45.970;12.646;2023-10-09T01:03:45;23.83;;;14.40;;
78960;SDS011;68362;45.970;12.646;2023-10-09T01:04:48;19.95;;;13.65;;
78960;SDS011;68362;45.970;12.646;2023-10-09T01:05:51;25.42;;;15.02;;
78960;SDS011;68362;45.970;12.646;2023-10-09T01:07:01;20.63;;;13.90;;
78960;SDS011;68362;45.970;12.646;2023-10-09T01:08:18;24.02;;;14.05;;
78960;SDS011;68362;45.970;12.646;2023-10-09T01:09:30;16.58;;;11.93;;
78960;SDS011;68362;45.970;12.646;2023-10-09T01:10:45;21.42;;;12.57;;
78960;SDS011;68362;45.970;12.646;2023-10-09T01:11:53;19.92;;;13.18;;
78960;SDS011;68362;45.970;12.646;2023-10-09T01:13:01;22.77;;;13.15;;
78960;SDS011;68362;45.970;12.646;2023-10-09T01:14:04;18.35;;;13.55;;
78960;SDS011;68362;45.970;12.646;2023-10-09T01:15:09;21.92;;;14.55;;
78960;SDS011;68362;45.970;12.646;2023-10-09T01:16:22;22.27;;;13.90;;
78960;SDS011;68362;45.970;12.646;2023-10-09T01:17:25;21.73;;;13.65;;
78960;SDS011;68362;45.970;12.646;2023-10-09T01:18:47;25.05;;;14.65;;
78960;SDS011;68362;45.970;12.646;2023-10-09T01:19:51;20.95;;;14.00;;
78960;SDS011;68362;45.970;12.646;2023-10-09T01:20:57;21.85;;;13.52;;
78960;SDS011;68362;45.970;12.646;2023-10-09T01:22:00;23.73;;;13.80;;
78960;SDS011;68362;45.970;12.646;2023-10-09T01:23:15;20.23;;;13.55;;
78960;SDS011;68362;45.970;12.646;2023-10-09T01:24:17;23.80;;;12.98;;
78960;SDS011;68362;45.970;12.646;2023-10-09T01:25:21;24.42;;;14.20;;
78960;SDS011;68362;45.970;12.646;2023-10-09T01:26:24;21.88;;;13.05;;
78960;SDS011;68362;45.970;12.646;2023-10-09T01:27:26;21.70;;;12.98;;
78960;SDS011;68362;45.970;12.646;2023-10-09T01:28:34;21.50;;;13.32;;
78960;SDS011;68362;45.970;12.646;2023-10-09T01:29:36;26.17;;;14.63;;
78960;SDS011;68362;45.970;12.646;2023-10-09T01:30:38;22.15;;;13.55;;
78960;SDS011;68362;45.970;12.646;2023-10-09T01:31:44;24.55;;;13.85;;
78960;SDS011;68362;45.970;12.646;2023-10-09T01:32:57;20.38;;;13.40;;
78960;SDS011;68362;45.970;12.646;2023-10-09T01:34:02;22.85;;;14.52;;
78960;SDS011;68362;45.970;12.646;2023-10-09T01:35:11;21.90;;;14.20;;
78960;SDS011;68362;45.970;12.646;2023-10-09T01:36:23;22.77;;;14.45;;
78960;SDS011;68362;45.970;12.646;2023-10-09T01:37:33;22.65;;;14.05;;
78960;SDS011;68362;45.970;12.646;2023-10-09T01:38:39;26.60;;;14.35;;
78960;SDS011;68362;45.970;12.646;2023-10-09T01:39:45;29.77;;;16.30;;
78960;SDS011;68362;45.970;12.646;2023-10-09T01:40:50;22.40;;;15.05;;
78960;SDS011;68362;45.970;12.646;2023-10-09T01:41:54;21.98;;;14.23;;
78960;SDS011;68362;45.970;12.646;2023-10-09T01:43:00;23.58;;;14.35;;
78960;SDS011;68362;45.970;12.646;2023-10-09T01:44:05;20.88;;;13.88;;
78960;SDS011;68362;45.970;12.646;2023-10-09T01:45:14;23.77;;;14.57;;
78960;SDS011;68362;45.970;12.646;2023-10-09T01:46:22;24.35;;;14.75;;
78960;SDS011;68362;45.970;12.646;2023-10-09T01:47:25;21.10;;;13.32;;
78960;SDS011;68362;45.970;12.646;2023-10-09T01:48:33;23.60;;;14.23;;
78960;SDS011;68362;45.970;12.646;2023-10-09T01:49:41;22.92;;;14.77;;
78960;SDS011;68362;45.970;12.646;2023-10-09T01:50:45;20.55;;;12.82;;
78960;SDS011;68362;45.970;12.646;2023-10-09T01:51:50;21.25;;;12.90;;
78960;SDS011;68362;45.970;12.646;2023-10-09T01:52:52;22.23;;;13.95;;
78960;SDS011;68362;45.970;12.646;2023-10-09T01:53:54;21.40;;;14.23;;
78960;SDS011;68362;45.970;12.646;2023-10-09T01:54:58;22.45;;;14.32;;
78960;SDS011;68362;45.970;12.646;2023-10-09T01:56:11;22.17;;;13.88;;
78960;SDS011;68362;45.970;12.646;2023-10-09T01:57:19;22.70;;;12.65;;
78960;SDS011;68362;45.970;12.646;2023-10-09T01:58:26;19.95;;;13.85;;
78960;SDS011;68362;45.970;12.646;2023-10-09T01:59:34;18.55;;;12.73;;
78960;SDS011;68362;45.970;12.646;2023-10-09T02:00:40;21.80;;;13.60;;
78960;SDS011;68362;45.970;12.646;2023-10-09T02:01:44;19.70;;;13.07;;
78960;SDS011;68362;45.970;12.646;2023-10-09T02:02:49;24.48;;;13.15;;
78960;SDS011;68362;45.970;12.646;2023-10-09T02:03:52;21.30;;;13.50;;
78960;SDS011;68362;45.970;12.646;2023-10-09T02:04:57;23.95;;;13.93;;
78960;SDS011;68362;45.970;12.646;2023-10-09T02:06:12;24.67;;;14.18;;
78960;SDS011;68362;45.970;12.646;2023-10-09T02:07:40;20.40;;;13.85;;
78960;SDS011;68362;45.970;12.646;2023-10-09T02:08:43;22.13;;;12.43;;
78960;SDS011;68362;45.970;12.646;2023-10-09T02:09:51;21.85;;;12.90;;
78960;SDS011;68362;45.970;12.646;2023-10-09T02:10:56;20.52;;;13.13;;
78960;SDS011;68362;45.970;12.646;2023-10-09T02:11:58;21.35;;;12.38;;
78960;SDS011;68362;45.970;12.646;2023-10-09T02:13:00;22.45;;;13.38;;
78960;SDS011;68362;45.970;12.646;2023-10-09T02:14:13;23.00;;;13.52;;
78960;SDS011;68362;45.970;12.646;2023-10-09T02:15:21;17.80;;;12.40;;
78960;SDS011;68362;45.970;12.646;2023-10-09T02:16:42;21.48;;;12.05;;
78960;SDS011;68362;45.970;12.646;2023-10-09T02:17:44;21.63;;;13.95;;
78960;SDS011;68362;45.970;12.646;2023-10-09T02:18:54;22.23;;;13.85;;
78960;SDS011;68362;45.970;12.646;2023-10-09T02:20:00;21.13;;;12.98;;
78960;SDS011;68362;45.970;12.646;2023-10-09T02:21:18;22.58;;;12.65;;
78960;SDS011;68362;45.970;12.646;2023-10-09T02:22:34;19.08;;;11.95;;
78960;SDS011;68362;45.970;12.646;2023-10-09T02:23:36;22.45;;;13.80;;
78960;SDS011;68362;45.970;12.646;2023-10-09T02:25:59;21.15;;;13.13;;
78960;SDS011;68362;45.970;12.646;2023-10-09T02:27:08;21.50;;;12.80;;
78960;SDS011;68362;45.970;12.646;2023-10-09T02:28:12;21.90;;;12.68;;
78960;SDS011;68362;45.970;12.646;2023-10-09T02:29:19;22.40;;;13.30;;
78960;SDS011;68362;45.970;12.646;2023-10-09T02:30:25;20.42;;;13.13;;
78960;SDS011;68362;45.970;12.646;2023-10-09T02:31:31;21.52;;;13.38;;
78960;SDS011;68362;45.970;12.646;2023-10-09T02:32:43;20.20;;;13.25;;
78960;SDS011;68362;45.970;12.646;2023-10-09T02:33:46;19.98;;;13.20;;
78960;SDS011;68362;45.970;12.646;2023-10-09T02:34:50;22.08;;;13.75;;
78960;SDS011;68362;45.970;12.646;2023-10-09T02:35:55;23.00;;;13.93;;
78960;SDS011;68362;45.970;12.646;2023-10-09T02:37:01;25.10;;;13.25;;
78960;SDS011;68362;45.970;12.646;2023-10-09T02:38:08;18.92;;;12.77;;
78960;SDS011;68362;45.970;12.646;2023-10-09T02:39:13;20.20;;;13.25;;
78960;SDS011;68362;45.970;12.646;2023-10-09T02:40:31;21.38;;;13.73;;
78960;SDS011;68362;45.970;12.646;2023-10-09T02:41:41;20.85;;;12.25;;
78960;SDS011;68362;45.970;12.646;2023-10-09T02:42:51;18.85;;;12.50;;
78960;SDS011;68362;45.970;12.646;2023-10-09T02:43:53;17.73;;;11.38;;
78960;SDS011;68362;45.970;12.646;2023-10-09T02:45:00;20.00;;;13.82;;
78960;SDS011;68362;45.970;12.646;2023-10-09T02:46:06;21.40;;;14.45;;
78960;SDS011;68362;45.970;12.646;2023-10-09T02:47:16;23.63;;;13.13;;
78960;SDS011;68362;45.970;12.646;2023-10-09T02:48:26;20.05;;;12.75;;
78960;SDS011;68362;45.970;12.646;2023-10-09T02:49:29;19.75;;;13.32;;
78960;SDS011;68362;45.970;12.646;2023-10-09T02:50:34;19.83;;;13.90;;
78960;SDS011;68362;45.970;12.646;2023-10-09T02:51:37;18.55;;;12.38;;
78960;SDS011;68362;45.970;12.646;2023-10-09T02:52:54;21.60;;;14.15;;
78960;SDS011;68362;45.970;12.646;2023-10-09T02:54:02;17.45;;;12.95;;
78960;SDS011;68362;45.970;12.646;2023-10-09T02:55:28;20.73;;;13.05;;
78960;SDS011;68362;45.970;12.646;2023-10-09T02:56:30;17.13;;;11.30;;
78960;SDS011;68362;45.970;12.646;2023-10-09T02:57:40;19.13;;;13.10;;
78960;SDS011;68362;45.970;12.646;2023-10-09T02:58:43;20.80;;;12.80;;
78960;SDS011;68362;45.970;12.646;2023-10-09T02:59:46;20.33;;;13.23;;
78960;SDS011;68362;45.970;12.646;2023-10-09T03:00:49;20.50;;;12.32;;
78960;SDS011;68362;45.970;12.646;2023-10-09T03:01:53;21.38;;;13.90;;
78960;SDS011;68362;45.970;12.646;2023-10-09T03:02:55;23.42;;;13.00;;
78960;SDS011;68362;45.970;12.646;2023-10-09T03:04:04;19.15;;;12.32;;
78960;SDS011;68362;45.970;12.646;2023-10-09T03:05:07;21.85;;;14.50;;
78960;SDS011;68362;45.970;12.646;2023-10-09T03:06:14;21.42;;;12.63;;
78960;SDS011;68362;45.970;12.646;2023-10-09T03:07:26;19.70;;;12.13;;
78960;SDS011;68362;45.970;12.646;2023-10-09T03:08:29;24.73;;;13.73;;
78960;SDS011;68362;45.970;12.646;2023-10-09T03:09:31;21.83;;;13.80;;
78960;SDS011;68362;45.970;12.646;2023-10-09T03:10:34;21.58;;;13.43;;
78960;SDS011;68362;45.970;12.646;2023-10-09T03:11:36;19.70;;;12.63;;
78960;SDS011;68362;45.970;12.646;2023-10-09T03:12:38;21.17;;;13.55;;
78960;SDS011;68362;45.970;12.646;2023-10-09T03:13:44;22.92;;;12.57;;
78960;SDS011;68362;45.970;12.646;2023-10-09T03:14:47;18.23;;;12.93;;
78960;SDS011;68362;45.970;12.646;2023-10-09T03:15:48;22.77;;;13.85;;
78960;SDS011;68362;45.970;12.646;2023-10-09T03:16:57;22.05;;;12.55;;
78960;SDS011;68362;45.970;12.646;2023-10-09T03:17:59;20.25;;;13.18;;
78960;SDS011;68362;45.970;12.646;2023-10-09T03:19:02;21.98;;;12.95;;
78960;SDS011;68362;45.970;12.646;2023-10-09T03:20:05;19.52;;;14.07;;
78960;SDS011;68362;45.970;12.646;2023-10-09T03:21:14;22.95;;;12.88;;
78960;SDS011;68362;45.970;12.646;2023-10-09T03:22:19;21.42;;;13.90;;
78960;SDS011;68362;45.970;12.646;2023-10-09T03:23:21;24.05;;;13.38;;
78960;SDS011;68362;45.970;12.646;2023-10-09T03:24:23;21.27;;;12.65;;
78960;SDS011;68362;45.970;12.646;2023-10-09T03:25:34;21.58;;;13.75;;
78960;SDS011;68362;45.970;12.646;2023-10-09T03:26:39;21.83;;;13.80;;
78960;SDS011;68362;45.970;12.646;2023-10-09T03:27:41;22.08;;;13.68;;
78960;SDS011;68362;45.970;12.646;2023-10-09T03:28:47;21.05;;;12.68;;
78960;SDS011;68362;45.970;12.646;2023-10-09T03:29:50;21.20;;;13.18;;
78960;SDS011;68362;45.970;12.646;2023-10-09T03:30:55;20.02;;;12.50;;
78960;SDS011;68362;45.970;12.646;2023-10-09T03:32:01;21.05;;;12.60;;
78960;SDS011;68362;45.970;12.646;2023-10-09T03:33:03;22.55;;;13.52;;
78960;SDS011;68362;45.970;12.646;2023-10-09T03:34:06;19.27;;;13.40;;
78960;SDS011;68362;45.970;12.646;2023-10-09T03:35:12;20.23;;;12.93;;
78960;SDS011;68362;45.970;12.646;2023-10-09T03:36:19;20.48;;;12.30;;
78960;SDS011;68362;45.970;12.646;2023-10-09T03:37:21;20.02;;;12.18;;
78960;SDS011;68362;45.970;12.646;2023-10-09T03:38:24;18.95;;;13.10;;
78960;SDS011;68362;45.970;12.646;2023-10-09T03:39:26;20.50;;;12.60;;
78960;SDS011;68362;45.970;12.646;2023-10-09T03:40:43;20.30;;;11.63;;
78960;SDS011;68362;45.970;12.646;2023-10-09T03:41:45;21.08;;;13.02;;
78960;SDS011;68362;45.970;12.646;2023-10-09T03:42:49;18.85;;;11.90;;
78960;SDS011;68362;45.970;12.646;2023-10-09T03:43:51;19.38;;;11.45;;
78960;SDS011;68362;45.970;12.646;2023-10-09T03:44:53;16.55;;;11.43;;
78960;SDS011;68362;45.970;12.646;2023-10-09T03:45:59;18.23;;;11.98;;
78960;SDS011;68362;45.970;12.646;2023-10-09T03:47:05;18.85;;;12.50;;
78960;SDS011;68362;45.970;12.646;2023-10-09T03:48:10;18.20;;;11.23;;
78960;SDS011;68362;45.970;12.646;2023-10-09T03:49:16;24.80;;;12.18;;
78960;SDS011;68362;45.970;12.646;2023-10-09T03:50:24;19.40;;;10.70;;
78960;SDS011;68362;45.970;12.646;2023-10-09T03:51:38;18.13;;;10.35;;
78960;SDS011;68362;45.970;12.646;2023-10-09T03:52:41;16.75;;;10.43;;
78960;SDS011;68362;45.970;12.646;2023-10-09T03:53:43;17.02;;;10.43;;
78960;SDS011;68362;45.970;12.646;2023-10-09T03:54:45;17.75;;;11.02;;
78960;SDS011;68362;45.970;12.646;2023-10-09T03:55:51;15.32;;;9.68;;
78960;SDS011;68362;45.970;12.646;2023-10-09T03:56:53;19.88;;;10.40;;
78960;SDS011;68362;45.970;12.646;2023-10-09T03:57:56;18.00;;;10.68;;
78960;SDS011;68362;45.970;12.646;2023-10-09T03:59:01;15.45;;;10.68;;
78960;SDS011;68362;45.970;12.646;2023-10-09T04:00:06;16.23;;;10.25;;
78960;SDS011;68362;45.970;12.646;2023-10-09T04:01:14;19.85;;;11.55;;
78960;SDS011;68362;45.970;12.646;2023-10-09T04:02:40;18.95;;;11.40;;
78960;SDS011;68362;45.970;12.646;2023-10-09T04:03:44;16.45;;;11.70;;
78960;SDS011;68362;45.970;12.646;2023-10-09T04:04:46;23.48;;;12.10;;
78960;SDS011;68362;45.970;12.646;2023-10-09T04:05:49;20.98;;;13.45;;
78960;SDS011;68362;45.970;12.646;2023-10-09T04:06:55;21.75;;;12.20;;
78960;SDS011;68362;45.970;12.646;2023-10-09T04:07:57;19.83;;;12.45;;
78960;SDS011;68362;45.970;12.646;2023-10-09T04:09:08;20.85;;;11.98;;
78960;SDS011;68362;45.970;12.646;2023-10-09T04:10:31;22.17;;;12.38;;
78960;SDS011;68362;45.970;12.646;2023-10-09T04:12:48;21.65;;;12.38;;
78960;SDS011;68362;45.970;12.646;2023-10-09T04:13:55;21.88;;;12.90;;
78960;SDS011;68362;45.970;12.646;2023-10-09T04:15:01;23.38;;;13.50;;
78960;SDS011;68362;45.970;12.646;2023-10-09T04:16:05;23.30;;;13.88;;
78960;SDS011;68362;45.970;12.646;2023-10-09T04:17:33;25.02;;;13.93;;
78960;SDS011;68362;45.970;12.646;2023-10-09T04:18:37;22.25;;;13.50;;
78960;SDS011;68362;45.970;12.646;2023-10-09T04:19:40;21.92;;;12.90;;
78960;SDS011;68362;45.970;12.646;2023-10-09T04:20:50;20.40;;;12.90;;
78960;SDS011;68362;45.970;12.646;2023-10-09T04:22:10;23.92;;;13.50;;
78960;SDS011;68362;45.970;12.646;2023-10-09T04:23:27;18.88;;;11.10;;
78960;SDS011;68362;45.970;12.646;2023-10-09T04:24:58;17.33;;;10.55;;
78960;SDS011;68362;45.970;12.646;2023-10-09T04:26:01;22.10;;;10.98;;
78960;SDS011;68362;45.970;12.646;2023-10-09T04:28:19;17.83;;;10.55;;
78960;SDS011;68362;45.970;12.646;2023-10-09T04:29:22;18.98;;;11.35;;
78960;SDS011;68362;45.970;12.646;2023-10-09T04:30:40;17.23;;;10.27;;
78960;SDS011;68362;45.970;12.646;2023-10-09T04:31:45;13.88;;;9.45;;
78960;SDS011;68362;45.970;12.646;2023-10-09T04:32:53;19.55;;;10.68;;
78960;SDS011;68362;45.970;12.646;2023-10-09T04:34:02;18.13;;;9.70;;
78960;SDS011;68362;45.970;12.646;2023-10-09T04:35:29;19.90;;;10.15;;
78960;SDS011;68362;45.970;12.646;2023-10-09T04:36:32;17.10;;;9.95;;
78960;SDS011;68362;45.970;12.646;2023-10-09T04:37:48;20.85;;;10.80;;
78960;SDS011;68362;45.970;12.646;2023-10-09T04:39:09;17.35;;;10.63;;
78960;SDS011;68362;45.970;12.646;2023-10-09T04:40:11;16.70;;;10.25;;
78960;SDS011;68362;45.970;12.646;2023-10-09T04:41:36;15.77;;;9.43;;
78960;SDS011;68362;45.970;12.646;2023-10-09T04:42:44;15.77;;;8.82;;
78960;SDS011;68362;45.970;12.646;2023-10-09T04:44:00;20.10;;;9.35;;
78960;SDS011;68362;45.970;12.646;2023-10-09T04:45:21;14.70;;;8.90;;
78960;SDS011;68362;45.970;12.646;2023-10-09T04:46:44;18.60;;;9.50;;
78960;SDS011;68362;45.970;12.646;2023-10-09T04:48:10;16.15;;;8.73;;
78960;SDS011;68362;45.970;12.646;2023-10-09T04:49:13;15.30;;;8.00;;
78960;SDS011;68362;45.970;12.646;2023-10-09T04:50:30;16.27;;;8.85;;
78960;SDS011;68362;45.970;12.646;2023-10-09T04:51:32;16.00;;;8.75;;
78960;SDS011;68362;45.970;12.646;2023-10-09T04:52:39;12.45;;;8.13;;
78960;SDS011;68362;45.970;12.646;2023-10-09T04:53:41;14.35;;;7.28;;
78960;SDS011;68362;45.970;12.646;2023-10-09T04:54:51;18.02;;;8.35;;
78960;SDS011;68362;45.970;12.646;2023-10-09T04:56:09;15.80;;;7.63;;
78960;SDS011;68362;45.970;12.646;2023-10-09T04:57:18;13.98;;;8.00;;
78960;SDS011;68362;45.970;12.646;2023-10-09T04:58:21;14.10;;;7.50;;
78960;SDS011;68362;45.970;12.646;2023-10-09T04:59:27;12.70;;;7.60;;
78960;SDS011;68362;45.970;12.646;2023-10-09T05:00:30;16.40;;;7.57;;
78960;SDS011;68362;45.970;12.646;2023-10-09T05:01:33;16.45;;;7.97;;
78960;SDS011;68362;45.970;12.646;2023-10-09T05:02:38;12.38;;;6.20;;
78960;SDS011;68362;45.970;12.646;2023-10-09T05:03:40;13.85;;;6.43;;
78960;SDS011;68362;45.970;12.646;2023-10-09T05:04:43;13.52;;;7.20;;
78960;SDS011;68362;45.970;12.646;2023-10-09T05:05:49;12.75;;;7.10;;
78960;SDS011;68362;45.970;12.646;2023-10-09T05:07:00;14.27;;;6.07;;
78960;SDS011;68362;45.970;12.646;2023-10-09T05:08:22;15.38;;;6.63;;
78960;SDS011;68362;45.970;12.646;2023-10-09T05:09:30;14.93;;;7.50;;
78960;SDS011;68362;45.970;12.646;2023-10-09T05:10:54;12.93;;;6.65;;
78960;SDS011;68362;45.970;12.646;2023-10-09T05:12:00;14.43;;;6.82;;
78960;SDS011;68362;45.970;12.646;2023-10-09T05:13:11;16.88;;;7.25;;
78960;SDS011;68362;45.970;12.646;2023-10-09T05:14:15;11.25;;;6.28;;
78960;SDS011;68362;45.970;12.646;2023-10-09T05:15:19;11.63;;;5.72;;
78960;SDS011;68362;45.970;12.646;2023-10-09T05:16:28;9.98;;;5.35;;
78960;SDS011;68362;45.970;12.646;2023-10-09T05:17:31;13.20;;;6.97;;
78960;SDS011;68362;45.970;12.646;2023-10-09T05:18:36;13.30;;;5.72;;
78960;SDS011;68362;45.970;12.646;2023-10-09T05:19:38;16.33;;;6.43;;
78960;SDS011;68362;45.970;12.646;2023-10-09T05:20:44;10.40;;;5.75;;
78960;SDS011;68362;45.970;12.646;2023-10-09T05:22:10;16.85;;;6.18;;
78960;SDS011;68362;45.970;12.646;2023-10-09T05:23:32;13.07;;;6.30;;
78960;SDS011;68362;45.970;12.646;2023-10-09T05:24:46;14.60;;;5.88;;
78960;SDS011;68362;45.970;12.646;2023-10-09T05:25:49;9.15;;;5.43;;
78960;SDS011;68362;45.970;12.646;2023-10-09T05:27:00;11.07;;;5.28;;
78960;SDS011;68362;45.970;12.646;2023-10-09T05:28:21;11.32;;;5.20;;
78960;SDS011;68362;45.970;12.646;2023-10-09T05:29:27;9.38;;;5.07;;
78960;SDS011;68362;45.970;12.646;2023-10-09T05:30:35;11.60;;;5.68;;
78960;SDS011;68362;45.970;12.646;2023-10-09T05:31:43;9.75;;;5.28;;
78960;SDS011;68362;45.970;12.646;2023-10-09T05:33:04;13.68;;;5.63;;
78960;SDS011;68362;45.970;12.646;2023-10-09T05:34:25;18.52;;;5.90;;
78960;SDS011;68362;45.970;12.646;2023-10-09T05:35:50;13.98;;;5.13;;
78960;SDS011;68362;45.970;12.646;2023-10-09T05:37:11;10.43;;;4.53;;
78960;SDS011;68362;45.970;12.646;2023-10-09T05:38:24;11.43;;;4.57;;
78960;SDS011;68362;45.970;12.646;2023-10-09T05:39:27;15.77;;;5.30;;
78960;SDS011;68362;45.970;12.646;2023-10-09T05:40:43;9.98;;;5.10;;
78960;SDS011;68362;45.970;12.646;2023-10-09T05:41:55;11.32;;;5.13;;
78960;SDS011;68362;45.970;12.646;2023-10-09T05:43:11;9.38;;;4.68;;
78960;SDS011;68362;45.970;12.646;2023-10-09T05:44:33;10.95;;;5.28;;
78960;SDS011;68362;45.970;12.646;2023-10-09T05:45:54;8.85;;;4.57;;
78960;SDS011;68362;45.970;12.646;2023-10-09T05:47:17;9.57;;;5.40;;
78960;SDS011;68362;45.970;12.646;2023-10-09T05:48:46;9.32;;;4.85;;
78960;SDS011;68362;45.970;12.646;2023-10-09T05:49:59;9.93;;;4.55;;
78960;SDS011;68362;45.970;12.646;2023-10-09T05:51:08;9.50;;;4.32;;
78960;SDS011;68362;45.970;12.646;2023-10-09T05:52:36;9.20;;;4.40;;
78960;SDS011;68362;45.970;12.646;2023-10-09T05:53:41;8.82;;;4.55;;
78960;SDS011;68362;45.970;12.646;2023-10-09T05:54:47;10.93;;;3.88;;
78960;SDS011;68362;45.970;12.646;2023-10-09T05:56:08;11.73;;;4.22;;
78960;SDS011;68362;45.970;12.646;2023-10-09T05:57:30;8.65;;;5.07;;
78960;SDS011;68362;45.970;12.646;2023-10-09T05:59:07;8.98;;;4.00;;
78960;SDS011;68362;45.970;12.646;2023-10-09T06:01:49;8.75;;;3.58;;
78960;SDS011;68362;45.970;12.646;2023-10-09T06:03:00;9.07;;;4.57;;
78960;SDS011;68362;45.970;12.646;2023-10-09T06:04:22;14.60;;;5.70;;
78960;SDS011;68362;45.970;12.646;2023-10-09T06:05:36;15.30;;;4.15;;
78960;SDS011;68362;45.970;12.646;2023-10-09T06:06:53;8.23;;;3.85;;
78960;SDS011;68362;45.970;12.646;2023-10-09T06:07:59;12.32;;;4.90;;
78960;SDS011;68362;45.970;12.646;2023-10-09T06:09:09;8.57;;;4.07;;
78960;SDS011;68362;45.970;12.646;2023-10-09T06:10:12;12.90;;;5.13;;
78960;SDS011;68362;45.970;12.646;2023-10-09T06:11:34;14.25;;;4.75;;
78960;SDS011;68362;45.970;12.646;2023-10-09T06:12:37;10.30;;;4.18;;
78960;SDS011;68362;45.970;12.646;2023-10-09T06:13:45;10.80;;;5.05;;
78960;SDS011;68362;45.970;12.646;2023-10-09T06:14:49;12.80;;;5.88;;
78960;SDS011;68362;45.970;12.646;2023-10-09T06:16:00;14.77;;;4.68;;
78960;SDS011;68362;45.970;12.646;2023-10-09T06:17:21;7.55;;;3.78;;
78960;SDS011;68362;45.970;12.646;2023-10-09T06:18:32;13.50;;;4.50;;
78960;SDS011;68362;45.970;12.646;2023-10-09T06:19:35;9.20;;;4.15;;
78960;SDS011;68362;45.970;12.646;2023-10-09T06:20:47;12.48;;;5.05;;
78960;SDS011;68362;45.970;12.646;2023-10-09T06:22:10;9.25;;;3.83;;
78960;SDS011;68362;45.970;12.646;2023-10-09T06:23:31;10.10;;;4.30;;
78960;SDS011;68362;45.970;12.646;2023-10-09T06:25:11;10.10;;;4.30;;
78960;SDS011;68362;45.970;12.646;2023-10-09T06:26:16;11.55;;;4.60;;
78960;SDS011;68362;45.970;12.646;2023-10-09T06:27:28;10.35;;;4.93;;
78960;SDS011;68362;45.970;12.646;2023-10-09T06:28:34;12.57;;;4.47;;
78960;SDS011;68362;45.970;12.646;2023-10-09T06:29:38;8.35;;;3.90;;
78960;SDS011;68362;45.970;12.646;2023-10-09T06:30:50;6.65;;;4.03;;
78960;SDS011;68362;45.970;12.646;2023-10-09T06:31:54;11.32;;;4.65;;
78960;SDS011;68362;45.970;12.646;2023-10-09T06:33:01;8.25;;;4.30;;
78960;SDS011;68362;45.970;12.646;2023-10-09T06:34:22;7.97;;;3.70;;
78960;SDS011;68362;45.970;12.646;2023-10-09T06:35:34;11.82;;;4.60;;
78960;SDS011;68362;45.970;12.646;2023-10-09T06:36:38;9.18;;;4.40;;
78960;SDS011;68362;45.970;12.646;2023-10-09T06:37:55;7.78;;;3.92;;
78960;SDS011;68362;45.970;12.646;2023-10-09T06:39:04;13.23;;;4.50;;
78960;SDS011;68362;45.970;12.646;2023-10-09T06:40:25;10.80;;;3.95;;
78960;SDS011;68362;45.970;12.646;2023-10-09T06:41:46;7.13;;;4.20;;
78960;SDS011;68362;45.970;12.646;2023-10-09T06:43:08;8.90;;;3.55;;
78960;SDS011;68362;45.970;12.646;2023-10-09T06:44:12;12.23;;;5.15;;
78960;SDS011;68362;45.970;12.646;2023-10-09T06:45:35;9.63;;;3.90;;
78960;SDS011;68362;45.970;12.646;2023-10-09T06:46:47;9.77;;;3.55;;